createdAt,value
2023-01-09T00:01:42.340Z,-9.91
2023-01-09T00:04:11.711Z,-9.74
2023-01-09T00:06:46.562Z,-10.10
2023-01-09T00:09:23.943Z,-9.93
2023-01-09T00:11:55.123Z,-10.13
2023-01-09T00:14:24.443Z,-10.03
2023-01-09T00:16:55.625Z,-9.93
2023-01-09T00:19:24.821Z,-9.97
2023-01-09T00:21:52.625Z,-10.10
2023-01-09T00:24:20.887Z,-10.17
2023-01-09T00:26:49.987Z,-10.32
2023-01-09T00:29:17.768Z,-10.14
2023-01-09T00:31:45.720Z,-10.15
2023-01-09T00:34:14.633Z,-10.05
2023-01-09T00:36:43.015Z,-10.13
2023-01-09T00:39:12.040Z,-10.09
2023-01-09T00:41:48.360Z,-10.22
2023-01-09T00:44:39.529Z,-10.22
2023-01-09T00:47:14.689Z,-10.27
2023-01-09T00:49:48.264Z,-10.15
2023-01-09T00:52:17.324Z,-10.20
2023-01-09T00:54:48.327Z,-10.09
2023-01-09T00:57:17.100Z,-10.21
2023-01-09T00:59:45.713Z,-10.23
2023-01-09T01:02:13.806Z,-10.21
2023-01-09T01:05:00.274Z,-10.20
2023-01-09T01:07:43.003Z,-10.14
2023-01-09T01:10:16.661Z,-10.21
2023-01-09T01:12:45.756Z,-10.19
2023-01-09T01:15:14.802Z,-10.29
2023-01-09T01:17:45.299Z,-10.25
2023-01-09T01:20:17.507Z,-10.23
2023-01-09T01:22:47.291Z,-10.07
2023-01-09T01:25:20.086Z,-10.04
2023-01-09T01:27:49.659Z,-10.04
2023-01-09T01:30:18.615Z,-10.23
2023-01-09T01:32:47.494Z,-10.26
2023-01-09T01:35:16.583Z,-10.30
2023-01-09T01:37:44.673Z,-10.28
2023-01-09T01:40:13.555Z,-10.13
2023-01-09T01:42:54.433Z,-10.17
2023-01-09T01:45:28.464Z,-10.12
2023-01-09T01:48:14.524Z,-10.16
2023-01-09T01:51:04.703Z,-10.20
2023-01-09T01:53:46.825Z,-10.22
2023-01-09T01:56:37.338Z,-10.27
2023-01-09T01:59:27.051Z,-10.37
2023-01-09T02:01:59.812Z,-10.53
2023-01-09T02:04:33.045Z,-10.43
2023-01-09T02:07:05.171Z,-10.46
2023-01-09T02:09:36.163Z,-10.44
2023-01-09T02:12:20.394Z,-10.33
2023-01-09T02:14:53.720Z,-10.21
2023-01-09T02:17:58.665Z,-10.37
2023-01-09T02:20:57.953Z,-10.28
2023-01-09T02:23:46.874Z,-10.40
2023-01-09T02:26:20.616Z,-10.47
2023-01-09T02:28:57.723Z,-10.37
2023-01-09T02:31:47.036Z,-10.41
2023-01-09T02:34:27.172Z,-10.46
2023-01-09T02:37:32.318Z,-10.37
2023-01-09T02:40:28.460Z,-10.42
2023-01-09T02:43:00.582Z,-10.37
2023-01-09T02:45:28.881Z,-10.47
2023-01-09T02:47:57.776Z,-10.34
2023-01-09T02:51:07.134Z,-10.41
2023-01-09T02:54:10.813Z,-10.56
2023-01-09T02:56:53.066Z,-10.42
2023-01-09T02:59:29.544Z,-10.53
2023-01-09T03:02:16.120Z,-10.54
2023-01-09T03:04:50.987Z,-10.69
2023-01-09T03:07:42.935Z,-10.68
2023-01-09T03:10:29.507Z,-10.59
2023-01-09T03:13:01.730Z,-10.50
2023-01-09T03:15:36.599Z,-10.37
2023-01-09T03:18:12.017Z,-10.48
2023-01-09T03:20:41.807Z,-10.49
2023-01-09T03:23:10.804Z,-10.62
2023-01-09T03:25:39.691Z,-10.75
2023-01-09T03:28:21.022Z,-10.63
2023-01-09T03:30:49.676Z,-10.69
2023-01-09T03:33:17.737Z,-10.64
2023-01-09T03:35:47.226Z,-10.59
2023-01-09T03:38:15.702Z,-10.58
2023-01-09T03:40:46.374Z,-10.70
2023-01-09T03:43:15.501Z,-10.53
2023-01-09T03:45:44.098Z,-10.66
2023-01-09T03:48:13.622Z,-10.69
2023-01-09T03:50:47.689Z,-10.76
2023-01-09T03:53:22.829Z,-10.80
2023-01-09T03:55:53.211Z,-10.60
2023-01-09T03:58:23.420Z,-10.70
2023-01-09T04:01:00.517Z,-10.86
2023-01-09T04:03:32.388Z,-10.54
2023-01-09T04:06:00.809Z,-10.66
2023-01-09T04:08:31.277Z,-10.64
2023-01-09T04:10:59.671Z,-10.84
2023-01-09T04:13:32.179Z,-10.86
2023-01-09T04:16:00.788Z,-10.66
2023-01-09T04:18:30.945Z,-10.78
2023-01-09T04:20:58.752Z,-10.77
2023-01-09T04:23:28.045Z,-10.74
2023-01-09T04:25:56.881Z,-10.78
2023-01-09T04:28:26.250Z,-10.75
2023-01-09T04:30:54.664Z,-10.60
2023-01-09T04:33:24.003Z,-10.66
2023-01-09T04:35:53.592Z,-10.63
2023-01-09T04:38:22.998Z,-10.48
2023-01-09T04:40:50.784Z,-10.60
2023-01-09T04:43:20.076Z,-10.72
2023-01-09T04:45:49.423Z,-10.62
2023-01-09T04:48:17.624Z,-10.57
2023-01-09T04:50:48.105Z,-10.52
2023-01-09T04:53:15.795Z,-10.49
2023-01-09T04:55:45.770Z,-10.57
2023-01-09T04:58:16.692Z,-10.35
2023-01-09T05:00:45.466Z,-10.32
2023-01-09T05:03:13.737Z,-10.33
2023-01-09T05:05:44.697Z,-10.51
2023-01-09T05:08:13.851Z,-10.49
2023-01-09T05:10:44.363Z,-10.36
2023-01-09T05:13:13.893Z,-10.45
2023-01-09T05:15:43.289Z,-10.50
2023-01-09T05:18:11.736Z,-10.44
2023-01-09T05:20:40.429Z,-10.54
2023-01-09T05:23:09.849Z,-10.56
2023-01-09T05:25:41.153Z,-10.61
2023-01-09T05:28:12.965Z,-10.63
2023-01-09T05:30:43.411Z,-10.60
2023-01-09T05:33:12.888Z,-10.60
2023-01-09T05:35:45.260Z,-10.67
2023-01-09T05:38:14.378Z,-10.57
2023-01-09T05:40:43.290Z,-10.42
2023-01-09T05:43:13.238Z,-10.50
2023-01-09T05:45:43.432Z,-10.63
2023-01-09T05:48:11.843Z,-10.55
2023-01-09T05:50:41.455Z,-10.52
2023-01-09T05:53:10.122Z,-10.57
2023-01-09T05:55:40.224Z,-10.57
2023-01-09T05:58:09.828Z,-10.49
2023-01-09T06:00:37.916Z,-10.47
2023-01-09T06:03:07.502Z,-10.41
2023-01-09T06:05:35.738Z,-10.32
2023-01-09T06:08:04.700Z,-10.27
2023-01-09T06:10:33.748Z,-10.23
2023-01-09T06:13:02.859Z,-10.17
2023-01-09T06:15:32.959Z,-10.22
2023-01-09T06:18:01.780Z,-10.13
2023-01-09T06:20:31.542Z,-9.97
2023-01-09T06:23:00.706Z,-10.05
2023-01-09T06:25:28.574Z,-10.00
2023-01-09T06:27:56.764Z,-10.03
2023-01-09T06:30:28.174Z,-9.97
2023-01-09T06:32:56.933Z,-10.06
2023-01-09T06:35:26.215Z,-9.93
2023-01-09T06:37:54.785Z,-9.81
2023-01-09T06:40:23.891Z,-9.72
2023-01-09T06:42:52.733Z,-9.84
2023-01-09T06:45:23.292Z,-9.80
2023-01-09T06:47:51.933Z,-9.66
2023-01-09T06:50:21.396Z,-9.57
2023-01-09T06:52:49.634Z,-9.52
2023-01-09T06:55:19.639Z,-9.58
2023-01-09T06:57:47.677Z,-9.53
2023-01-09T07:00:16.948Z,-9.34
2023-01-09T07:02:45.881Z,-9.35
2023-01-09T07:05:15.289Z,-9.35
2023-01-09T07:07:44.450Z,-9.20
2023-01-09T07:10:12.719Z,-8.92
2023-01-09T07:12:41.995Z,-8.50
2023-01-09T07:15:11.277Z,-8.30
2023-01-09T07:17:41.214Z,-8.21
2023-01-09T07:20:10.545Z,-8.10
2023-01-09T07:22:39.435Z,-7.88
2023-01-09T07:25:07.978Z,-8.06
2023-01-09T07:27:40.750Z,-7.90
2023-01-09T07:30:18.824Z,-7.83
2023-01-09T07:32:50.187Z,-7.37
2023-01-09T07:35:19.302Z,-7.59
2023-01-09T07:37:48.720Z,-7.39
2023-01-09T07:40:19.881Z,-7.71
2023-01-09T07:42:55.567Z,-7.17
2023-01-09T07:45:23.710Z,-6.94
2023-01-09T07:47:53.117Z,-7.12
2023-01-09T07:50:21.736Z,-6.78
2023-01-09T07:52:50.655Z,-6.65
2023-01-09T07:55:19.533Z,-6.66
2023-01-09T07:57:52.572Z,-6.43
2023-01-09T08:00:21.495Z,-6.29
2023-01-09T08:02:54.659Z,-6.06
2023-01-09T08:05:27.589Z,-5.89
2023-01-09T08:07:57.864Z,-5.91
2023-01-09T08:10:26.927Z,-5.73
2023-01-09T08:12:54.654Z,-5.70
2023-01-09T08:15:23.660Z,-5.35
2023-01-09T10:35:56.531Z,1.08
2023-01-09T10:38:34.006Z,0.59
2023-01-09T10:41:08.082Z,0.67
2023-01-09T10:44:04.839Z,1.20
2023-01-09T10:46:55.419Z,0.94
2023-01-09T10:49:24.616Z,1.54
2023-01-09T10:52:30.819Z,1.31
2023-01-09T10:55:25.567Z,1.47
2023-01-09T10:58:04.925Z,1.25
2023-01-09T11:00:34.507Z,1.47
2023-01-09T11:03:04.142Z,1.63
2023-01-09T11:05:32.933Z,2.05
2023-01-09T11:08:22.321Z,2.28
2023-01-09T11:10:54.375Z,1.69
2023-01-09T11:13:30.094Z,1.65
2023-01-09T11:16:20.082Z,1.93
2023-01-09T11:19:03.075Z,1.85
2023-01-09T11:21:38.440Z,2.10
2023-01-09T11:24:21.691Z,2.29
2023-01-09T11:26:53.253Z,2.67
2023-01-09T11:29:26.971Z,2.60
2023-01-09T11:32:18.005Z,2.95
2023-01-09T11:34:47.736Z,2.38
2023-01-09T11:37:27.991Z,2.10
2023-01-09T11:40:00.453Z,2.67
2023-01-09T11:42:52.264Z,2.38
2023-01-09T11:45:35.095Z,2.67
2023-01-09T11:48:17.938Z,2.13
2023-01-09T11:50:55.494Z,1.71
2023-01-09T11:53:25.584Z,1.94
2023-01-09T11:56:07.109Z,1.26
2023-01-09T11:58:36.954Z,1.06
2023-01-09T12:01:39.573Z,1.64
2023-01-09T12:04:36.181Z,2.04
2023-01-09T12:07:04.435Z,1.71
2023-01-09T12:09:51.271Z,1.81
2023-01-09T12:12:25.618Z,1.73
2023-01-09T12:15:32.622Z,1.23
2023-01-09T12:18:24.718Z,1.15
2023-01-09T12:21:34.588Z,1.31
2023-01-09T12:24:31.429Z,1.22
2023-01-09T12:27:40.827Z,0.56
2023-01-09T12:30:23.938Z,1.04
2023-01-09T12:33:17.268Z,1.01
2023-01-09T12:36:11.140Z,0.66
2023-01-09T12:38:54.476Z,0.73
2023-01-09T12:42:20.738Z,0.69
2023-01-09T12:45:41.210Z,0.35
2023-01-09T12:48:47.014Z,0.20
2023-01-09T12:51:51.974Z,0.47
2023-01-09T12:54:23.482Z,0.69
2023-01-09T12:57:04.837Z,0.22
2023-01-09T12:59:40.389Z,0.46
2023-01-09T13:02:39.482Z,0.29
2023-01-09T13:05:16.092Z,0.22
2023-01-09T13:07:55.038Z,0.32
2023-01-09T13:10:42.255Z,0.24
2023-01-09T13:13:17.629Z,0.18
2023-01-09T13:16:02.729Z,0.40
2023-01-09T13:18:44.193Z,0.33
2023-01-09T13:21:14.403Z,0.33
2023-01-09T13:23:52.333Z,-0.07
2023-01-09T13:26:29.227Z,-0.07
2023-01-09T13:29:03.482Z,0.10
2023-01-09T13:31:52.508Z,0.22
2023-01-09T13:34:25.250Z,0.24
2023-01-09T13:36:58.625Z,0.15
2023-01-09T13:39:34.228Z,0.05
2023-01-09T13:42:29.563Z,-0.33
2023-01-09T13:45:25.569Z,-0.32
2023-01-09T13:48:18.403Z,-0.30
2023-01-09T13:50:48.478Z,-0.25
2023-01-09T13:53:25.403Z,-0.33
2023-01-09T13:55:59.842Z,-0.53
2023-01-09T13:58:55.335Z,-0.47
2023-01-09T14:01:38.880Z,-0.42
2023-01-09T14:04:16.458Z,-0.49
2023-01-09T14:07:22.721Z,-0.74
2023-01-09T14:09:58.522Z,-0.45
2023-01-09T14:12:31.283Z,-0.46
2023-01-09T14:15:02.519Z,-0.74
2023-01-09T14:17:35.494Z,-0.77
2023-01-09T14:20:25.226Z,-0.74
2023-01-09T14:23:22.869Z,-0.89
2023-01-09T14:25:55.382Z,-0.92
2023-01-09T14:28:27.822Z,-1.15
2023-01-09T14:30:58.929Z,-1.04
2023-01-09T14:33:30.092Z,-1.31
2023-01-09T14:36:22.012Z,-1.15
2023-01-09T14:39:10.237Z,-1.18
2023-01-09T14:42:09.424Z,-1.20
2023-01-09T14:44:44.246Z,-1.27
2023-01-09T14:47:15.577Z,-1.38
2023-01-09T14:49:50.500Z,-1.32
2023-01-09T14:52:32.064Z,-1.36
2023-01-09T14:55:03.444Z,-1.42
2023-01-09T14:57:34.944Z,-1.50
2023-01-09T15:00:20.867Z,-1.43
2023-01-09T15:02:54.060Z,-1.51
2023-01-09T15:05:29.146Z,-1.52
2023-01-09T15:08:03.828Z,-1.55
2023-01-09T15:10:37.462Z,-1.82
2023-01-09T15:13:11.090Z,-1.62
2023-01-09T15:15:48.225Z,-1.83
2023-01-09T15:18:25.479Z,-1.71
2023-01-09T15:21:04.024Z,-1.79
2023-01-09T15:23:32.712Z,-1.99
2023-01-09T15:26:30.148Z,-1.84
2023-01-09T15:29:15.660Z,-1.80
2023-01-09T15:32:01.834Z,-1.91
2023-01-09T15:34:33.421Z,-2.06
2023-01-09T15:37:03.425Z,-2.12
2023-01-09T15:39:37.145Z,-2.08
2023-01-09T15:42:39.971Z,-2.14
2023-01-09T15:45:22.928Z,-2.29
2023-01-09T15:47:51.602Z,-2.44
2023-01-09T15:50:30.093Z,-2.38
2023-01-09T15:52:58.539Z,-2.45
2023-01-09T15:55:39.281Z,-2.67
2023-01-09T15:58:30.807Z,-2.64
2023-01-09T16:01:03.366Z,-2.63
2023-01-09T16:03:31.867Z,-2.76
2023-01-09T16:06:08.859Z,-2.80
2023-01-09T16:08:42.701Z,-3.01
2023-01-09T16:11:24.772Z,-3.08
2023-01-09T16:13:54.139Z,-2.93
2023-01-09T19:29:12.425Z,-6.83
2023-01-09T19:31:43.267Z,-6.64
2023-01-09T19:34:13.960Z,-6.92
2023-01-09T19:36:48.037Z,-6.87
2023-01-09T19:39:17.006Z,-6.82
2023-01-09T19:41:46.489Z,-7.00
2023-01-09T19:44:17.338Z,-6.92
2023-01-09T19:46:46.859Z,-7.04
2023-01-09T19:49:16.376Z,-6.91
2023-01-09T19:51:46.611Z,-7.03
2023-01-09T19:54:15.756Z,-7.02
2023-01-09T19:56:46.197Z,-7.07
2023-01-09T19:59:16.253Z,-7.19
2023-01-09T20:01:46.025Z,-7.00
2023-01-09T20:04:16.045Z,-7.05
2023-01-09T20:06:49.835Z,-7.15
2023-01-09T20:09:27.675Z,-7.14
2023-01-09T20:12:01.684Z,-7.10
2023-01-09T20:14:31.389Z,-7.14
2023-01-09T20:17:01.259Z,-7.08
2023-01-09T20:19:32.695Z,-7.15
2023-01-09T20:22:03.581Z,-7.25
2023-01-09T20:24:32.748Z,-7.19
2023-01-09T20:27:01.625Z,-7.17
2023-01-09T20:29:30.904Z,-7.36
2023-01-09T20:32:02.136Z,-7.14
2023-01-09T20:34:31.634Z,-7.13
2023-01-09T20:37:00.383Z,-7.12
2023-01-09T20:39:29.938Z,-7.23
2023-01-09T20:41:58.515Z,-7.07
2023-01-09T20:44:27.594Z,-7.00
2023-01-09T20:46:57.225Z,-7.04
2023-01-09T20:49:26.105Z,-7.01
2023-01-09T20:51:55.494Z,-7.02
2023-01-09T20:54:24.529Z,-7.10
2023-01-09T20:56:54.797Z,-7.26
2023-01-09T20:59:26.691Z,-7.11
2023-01-09T21:01:57.139Z,-7.28
2023-01-09T21:04:26.401Z,-7.20
2023-01-09T21:06:55.987Z,-7.16
2023-01-09T21:09:26.442Z,-7.18
2023-01-09T21:11:56.041Z,-7.00
2023-01-09T21:14:24.403Z,-7.07
2023-01-09T21:16:55.297Z,-7.06
2023-01-09T21:19:25.438Z,-7.10
2023-01-09T21:21:54.273Z,-7.23
2023-01-09T21:24:25.351Z,-7.06
2023-01-09T21:26:53.808Z,-7.14
2023-01-09T21:29:24.736Z,-7.24
2023-01-09T21:31:55.498Z,-7.25
2023-01-09T21:34:26.452Z,-7.16
2023-01-09T21:36:56.045Z,-7.22
2023-01-09T21:39:25.656Z,-7.21
2023-01-09T21:42:14.911Z,-7.07
2023-01-09T21:45:02.955Z,-7.37
2023-01-09T21:47:35.953Z,-7.08
2023-01-09T21:50:04.496Z,-7.05
2023-01-09T21:52:37.821Z,-7.13
2023-01-09T21:55:07.268Z,-7.26
2023-01-09T21:57:36.688Z,-7.37
2023-01-09T22:00:05.780Z,-7.21
2023-01-09T22:02:37.547Z,-7.19
2023-01-09T22:05:07.689Z,-7.15
2023-01-09T22:07:36.271Z,-7.13
2023-01-09T22:10:06.375Z,-7.09
2023-01-09T22:12:36.009Z,-7.13
2023-01-09T22:15:07.819Z,-7.12
2023-01-09T22:17:36.172Z,-7.10
2023-01-09T22:20:05.461Z,-7.35
2023-01-09T22:22:35.085Z,-7.19
2023-01-09T22:25:06.034Z,-7.08
2023-01-09T22:27:34.236Z,-7.17
2023-01-09T22:30:03.481Z,-7.14
2023-01-09T22:32:35.402Z,-7.01
2023-01-09T22:35:03.279Z,-7.02
2023-01-09T22:37:33.469Z,-6.96
2023-01-09T22:40:03.443Z,-7.21
2023-01-09T22:42:32.745Z,-7.17
2023-01-09T22:45:04.481Z,-7.14
2023-01-09T22:47:33.174Z,-7.13
2023-01-09T22:50:02.569Z,-7.14
2023-01-09T22:52:31.309Z,-7.12
2023-01-09T22:55:00.711Z,-7.25
2023-01-09T22:57:29.310Z,-7.19
2023-01-09T22:59:57.437Z,-7.19
2023-01-09T23:02:25.361Z,-7.00
2023-01-09T23:05:00.839Z,-7.14
2023-01-09T23:07:29.376Z,-7.17
2023-01-09T23:10:01.285Z,-7.08
2023-01-09T23:12:30.250Z,-7.19
2023-01-09T23:14:59.405Z,-7.32
2023-01-09T23:17:28.226Z,-7.47
2023-01-09T23:19:57.499Z,-7.27
2023-01-09T23:22:26.182Z,-7.23
2023-01-09T23:24:55.097Z,-7.30
2023-01-09T23:27:27.170Z,-7.35
2023-01-09T23:29:55.136Z,-7.34
2023-01-09T23:32:23.262Z,-7.26
2023-01-09T23:34:53.269Z,-7.33
2023-01-09T23:37:23.213Z,-7.21
2023-01-09T23:39:52.742Z,-7.23
2023-01-09T23:42:40.927Z,-7.24
2023-01-09T23:45:10.084Z,-7.32
2023-01-09T23:47:38.199Z,-7.24
2023-01-09T23:50:09.310Z,-7.36
2023-01-09T23:52:38.324Z,-7.22
2023-01-09T23:55:07.050Z,-7.37
2023-01-09T23:57:35.189Z,-7.35
